Time;durP1;ratioP1;P1;durP2;ratioP2;P2;SDS_P1;SDS_P2;PMS_P1;PMS_P2;Temp;Humidity;BMP_temperature;BMP_pressure;BME280_temperature;BME280_humidity;BME280_pressure;Samples;Min_cycle;Max_cycle;Signal;HPM_P1;HPM_P2
2023/11/02 00:02:27;;;;;;;6.50;6.40;;;22.50;90.40;;;;;;5014043;28;20477;-63
2023/11/02 00:04:54;;;;;;;7.30;7.07;;;22.50;90.40;;;;;;5013751;28;20504;-62
2023/11/02 00:07:21;;;;;;;7.57;7.37;;;22.50;90.40;;;;;;5013771;28;20446;-62
2023/11/02 00:09:48;;;;;;;7.50;7.40;;;22.50;90.40;;;;;;5013742;28;20446;-62
2023/11/02 00:12:18;;;;;;;7.10;7.00;;;22.50;90.40;;;;;;5013745;28;20856;-62
2023/11/02 00:14:51;;;;;;;6.60;6.50;;;22.50;90.40;;;;;;5013787;28;20875;-62
2023/11/02 00:17:55;;;;;;;7.67;7.47;;;22.50;90.30;;;;;;5013599;28;20501;-63
2023/11/02 00:20:44;;;;;;;7.17;6.97;;;22.50;90.30;;;;;;5013697;28;20445;-63
2023/11/02 00:23:14;;;;;;;6.70;6.60;;;22.50;90.30;;;;;;5013438;28;20823;-62
2023/11/02 00:25:55;;;;;;;7.00;6.90;;;22.50;90.30;;;;;;5013504;28;20940;-62
2023/11/02 00:28:23;;;;;;;6.57;6.47;;;22.50;90.30;;;;;;5013538;28;20864;-62
2023/11/02 00:30:50;;;;;;;7.87;7.67;;;22.50;90.30;;;;;;5013427;28;20874;-62
2023/11/02 00:33:19;;;;;;;7.10;7.00;;;22.50;90.30;;;;;;5013186;28;20481;-62
2023/11/02 00:35:49;;;;;;;7.13;7.03;;;22.50;90.30;;;;;;5013341;28;20438;-62
2023/11/02 00:38:20;;;;;;;7.60;7.30;;;22.50;90.30;;;;;;5013288;28;20513;-63
2023/11/02 00:40:47;;;;;;;7.10;6.90;;;22.50;90.30;;;;;;5013227;28;20533;-62
2023/11/02 00:43:15;;;;;;;6.90;6.80;;;22.50;90.30;;;;;;5013058;28;20434;-63
2023/11/02 00:45:42;;;;;;;7.40;7.20;;;22.50;90.30;;;;;;5013242;28;20717;-62
2023/11/02 00:48:17;;;;;;;7.27;7.17;;;22.40;90.30;;;;;;5013150;28;20961;-62
2023/11/02 00:51:20;;;;;;;6.90;6.80;;;22.50;90.30;;;;;;5013075;28;20973;-61
2023/11/02 00:53:52;;;;;;;7.73;7.47;;;22.50;90.30;;;;;;5012954;28;20473;-62
2023/11/02 00:56:20;;;;;;;6.90;6.80;;;22.40;90.20;;;;;;5012169;28;20442;-62
2023/11/02 00:58:49;;;;;;;7.00;6.90;;;22.40;90.20;;;;;;5013057;28;20486;-62
2023/11/02 01:01:18;;;;;;;7.10;7.00;;;22.40;90.20;;;;;;5012871;28;20470;-62
2023/11/02 01:03:48;;;;;;;7.37;7.10;;;22.40;90.20;;;;;;5012651;28;20469;-62
2023/11/02 01:06:19;;;;;;;7.70;7.03;;;22.40;90.20;;;;;;5012867;28;20504;-62
2023/11/02 01:08:52;;;;;;;6.70;6.40;;;22.40;90.20;;;;;;5012759;28;20449;-62
2023/11/02 01:11:20;;;;;;;6.50;6.40;;;22.40;90.20;;;;;;5012652;28;20846;-62
2023/11/02 01:13:46;;;;;;;6.60;6.50;;;22.40;90.20;;;;;;5012520;28;20473;-61
2023/11/02 01:16:14;;;;;;;6.43;6.23;;;22.40;90.10;;;;;;5012575;28;20478;-62
2023/11/02 01:18:45;;;;;;;6.87;6.70;;;22.40;90.10;;;;;;5012481;28;20509;-62
2023/11/02 01:21:15;;;;;;;6.87;6.67;;;22.40;90.10;;;;;;5012422;28;20443;-62
2023/11/02 01:23:42;;;;;;;6.17;5.97;;;22.40;90.50;;;;;;5012440;28;20470;-62
2023/11/02 01:26:46;;;;;;;6.30;6.20;;;22.40;90.10;;;;;;5012508;28;20913;-62
2023/11/02 01:29:13;;;;;;;6.27;6.07;;;22.40;90.20;;;;;;5012451;28;20480;-62
2023/11/02 01:31:41;;;;;;;7.27;7.07;;;22.40;90.20;;;;;;5012278;28;20465;-62
2023/11/02 01:34:09;;;;;;;6.40;6.30;;;22.40;90.20;;;;;;5012194;28;20973;-62
2023/11/02 01:36:41;;;;;;;6.67;6.47;;;22.30;90.10;;;;;;5012251;28;20500;-62
2023/11/02 01:39:24;;;;;;;6.70;6.40;;;22.30;90.10;;;;;;5012420;28;20835;-62
2023/11/02 01:42:03;;;;;;;5.90;5.80;;;22.30;90.10;;;;;;5012613;28;20476;-62
2023/11/02 01:44:41;;;;;;;6.90;6.70;;;22.30;90.20;;;;;;5012121;28;20468;-62
2023/11/02 01:47:12;;;;;;;7.27;7.00;;;22.30;90.10;;;;;;5012327;28;20465;-63
2023/11/02 01:49:48;;;;;;;6.20;6.10;;;22.30;90.20;;;;;;5012115;28;20781;-62
2023/11/02 01:52:28;;;;;;;6.80;6.63;;;22.30;90.20;;;;;;5012083;28;20442;-62
2023/11/02 01:55:02;;;;;;;7.23;7.07;;;22.30;90.20;;;;;;5011838;28;20524;-62
2023/11/02 01:57:42;;;;;;;7.63;7.50;;;22.30;90.10;;;;;;5012016;28;20446;-62
2023/11/02 02:00:15;;;;;;;6.30;6.20;;;22.30;90.10;;;;;;5012078;28;20516;-62
2023/11/02 02:02:47;;;;;;;6.77;6.60;;;22.30;90.20;;;;;;5012022;28;20452;-62
2023/11/02 02:05:26;;;;;;;6.87;6.67;;;22.30;90.20;;;;;;5011859;28;20975;-62
2023/11/02 02:08:04;;;;;;;7.77;7.60;;;22.30;90.20;;;;;;5011819;28;20442;-63
2023/11/02 02:10:51;;;;;;;7.50;7.30;;;22.30;90.20;;;;;;5011924;28;20533;-62
2023/11/02 02:13:28;;;;;;;6.70;6.50;;;22.30;90.30;;;;;;5011780;28;20481;-62
2023/11/02 02:16:08;;;;;;;7.00;6.90;;;22.20;90.30;;;;;;5012157;28;20527;-63
2023/11/02 02:18:39;;;;;;;7.60;7.40;;;22.30;90.40;;;;;;5011792;28;20482;-62
2023/11/02 02:21:12;;;;;;;7.03;6.83;;;22.30;90.50;;;;;;5011779;28;20484;-62
2023/11/02 02:23:47;;;;;;;6.20;6.10;;;22.30;90.50;;;;;;5011622;28;21039;-62
2023/11/02 02:26:41;;;;;;;6.77;6.60;;;22.20;90.50;;;;;;5011835;28;20437;-62
2023/11/02 02:29:32;;;;;;;6.77;6.57;;;22.30;90.50;;;;;;5011973;28;20539;-62
2023/11/02 02:32:21;;;;;;;7.43;7.07;;;22.30;90.50;;;;;;5011659;28;20452;-62
2023/11/02 02:35:03;;;;;;;6.80;6.70;;;22.30;90.50;;;;;;5011629;28;20490;-61
2023/11/02 02:37:37;;;;;;;7.07;6.97;;;22.20;90.60;;;;;;5011661;28;20894;-62
2023/11/02 02:40:07;;;;;;;7.27;7.10;;;22.20;90.60;;;;;;5011502;28;21023;-61
2023/11/02 02:42:37;;;;;;;6.90;6.70;;;22.20;90.60;;;;;;5011560;28;20442;-62
2023/11/02 02:45:09;;;;;;;7.33;7.17;;;22.30;90.60;;;;;;5011508;28;20497;-62
2023/11/02 02:47:38;;;;;;;7.47;7.27;;;22.30;90.60;;;;;;5011404;28;20481;-62
2023/11/02 02:50:09;;;;;;;6.70;6.50;;;22.20;90.50;;;;;;5011432;28;20441;-62
2023/11/02 02:52:39;;;;;;;6.70;6.60;;;22.20;90.50;;;;;;5011381;28;20485;-62
2023/11/02 02:55:08;;;;;;;7.30;7.20;;;22.20;90.50;;;;;;5055582;22;20986;-65
2023/11/02 02:57:39;;;;;;;7.70;7.40;;;22.30;90.50;;;;;;5039511;28;20443;-62
2023/11/02 03:00:09;;;;;;;7.20;7.10;;;22.20;90.50;;;;;;5039201;28;20570;-64
2023/11/02 03:02:37;;;;;;;7.00;6.80;;;22.30;90.50;;;;;;5042050;28;20468;-61
2023/11/02 03:05:07;;;;;;;6.60;6.40;;;22.20;90.50;;;;;;5043853;28;20869;-63
2023/11/02 03:07:37;;;;;;;7.20;7.00;;;22.20;90.80;;;;;;5041837;28;20480;-64
2023/11/02 03:10:09;;;;;;;7.00;6.87;;;22.20;90.50;;;;;;5042597;28;20464;-64
2023/11/02 03:12:39;;;;;;;6.67;6.57;;;22.20;90.40;;;;;;5039384;28;20966;-61
2023/11/02 03:15:08;;;;;;;7.57;7.43;;;22.20;90.30;;;;;;5038913;28;20493;-64
2023/11/02 03:17:48;;;;;;;7.67;7.57;;;22.20;90.30;;;;;;5041703;28;20483;-64
2023/11/02 03:20:18;;;;;;;7.30;6.83;;;22.20;90.30;;;;;;5043700;28;20501;-63
2023/11/02 03:22:45;;;;;;;7.17;7.00;;;22.20;90.30;;;;;;5042607;28;20463;-64
2023/11/02 03:25:23;;;;;;;7.40;7.20;;;22.20;90.30;;;;;;5042574;28;20496;-61
2023/11/02 03:28:02;;;;;;;7.87;7.57;;;22.20;90.30;;;;;;5035905;28;20502;-62
2023/11/02 03:30:39;;;;;;;7.50;7.40;;;22.20;90.30;;;;;;5044363;28;20500;-65
2023/11/02 03:33:14;;;;;;;7.10;6.90;;;22.20;90.20;;;;;;5045751;28;20475;-62
2023/11/02 03:35:49;;;;;;;7.90;7.70;;;22.20;90.30;;;;;;5034455;28;20484;-63
2023/11/02 03:38:26;;;;;;;9.00;8.70;;;22.20;90.20;;;;;;5042323;28;20479;-63
2023/11/02 03:41:05;;;;;;;8.37;8.17;;;22.20;90.20;;;;;;5045706;28;20479;-63
2023/11/02 03:43:42;;;;;;;7.90;7.70;;;22.20;90.20;;;;;;5043112;28;20453;-64
2023/11/02 03:46:22;;;;;;;7.97;7.67;;;22.20;90.20;;;;;;5042204;28;20491;-62
2023/11/02 03:49:00;;;;;;;8.20;8.00;;;22.10;90.20;;;;;;5035180;28;20467;-64
2023/11/02 03:51:38;;;;;;;7.90;7.70;;;22.20;90.20;;;;;;5043693;28;20477;-61
2023/11/02 03:54:25;;;;;;;8.07;7.87;;;22.10;90.10;;;;;;5045117;28;20474;-64
2023/11/02 03:57:03;;;;;;;8.57;8.33;;;22.10;90.10;;;;;;5035260;28;20476;-65
2023/11/02 03:59:42;;;;;;;8.20;8.00;;;22.10;90.10;;;;;;5041935;28;20527;-64
2023/11/02 04:02:20;;;;;;;8.70;8.40;;;22.10;90.10;;;;;;5041988;28;20807;-63
2023/11/02 04:04:49;;;;;;;7.83;7.70;;;22.10;90.10;;;;;;5034423;28;20951;-64
2023/11/02 04:07:26;;;;;;;7.63;7.53;;;22.10;90.10;;;;;;5041712;28;20820;-65
2023/11/02 04:09:55;;;;;;;7.90;7.70;;;22.10;90.10;;;;;;5045144;28;20538;-64
2023/11/02 04:12:32;;;;;;;8.00;7.80;;;22.10;90.10;;;;;;5044090;28;20449;-63
2023/11/02 04:15:01;;;;;;;8.70;8.50;;;22.10;90.10;;;;;;5041495;28;20471;-62
2023/11/02 04:17:29;;;;;;;8.43;8.23;;;22.10;90.00;;;;;;5043140;28;20447;-65
2023/11/02 04:19:56;;;;;;;8.00;7.80;;;22.20;90.10;;;;;;5044882;28;20514;-64
2023/11/02 04:22:24;;;;;;;7.33;7.23;;;22.20;90.10;;;;;;5043799;28;20820;-64
2023/11/02 04:24:52;;;;;;;7.80;7.60;;;22.20;90.00;;;;;;5041388;28;20906;-64
2023/11/02 04:27:19;;;;;;;7.37;7.27;;;22.20;90.00;;;;;;5041565;28;20847;-64
2023/11/02 04:29:46;;;;;;;7.30;7.20;;;22.10;89.90;;;;;;5044711;28;20441;-63
2023/11/02 04:32:13;;;;;;;7.60;7.50;;;22.10;90.00;;;;;;5043553;28;20487;-64
2023/11/02 04:34:40;;;;;;;8.40;8.20;;;22.10;90.00;;;;;;5041289;28;20967;-61
2023/11/02 04:37:13;;;;;;;8.37;8.13;;;22.20;90.00;;;;;;5048157;28;20474;-63
2023/11/02 04:39:43;;;;;;;8.70;8.40;;;22.20;90.00;;;;;;5041160;28;20493;-63
2023/11/02 04:42:10;;;;;;;8.40;8.20;;;22.20;89.90;;;;;;5041001;28;20445;-62
2023/11/02 04:44:36;;;;;;;7.97;7.73;;;22.20;89.80;;;;;;5043519;28;20497;-65
2023/11/02 04:47:04;;;;;;;8.60;8.40;;;22.20;89.80;;;;;;5044421;28;20878;-64
2023/11/02 04:49:33;;;;;;;9.00;8.80;;;22.10;89.60;;;;;;5042582;28;20471;-65
2023/11/02 04:52:02;;;;;;;8.97;8.67;;;22.10;89.50;;;;;;5040921;28;20461;-62
2023/11/02 04:54:30;;;;;;;8.20;7.90;;;22.10;89.40;;;;;;5042057;28;20469;-64
2023/11/02 04:56:59;;;;;;;7.70;7.50;;;22.10;89.30;;;;;;5044231;28;20880;-65
2023/11/02 04:59:26;;;;;;;8.97;8.53;;;22.10;89.20;;;;;;5035774;28;20508;-63
2023/11/02 05:01:52;;;;;;;8.67;8.47;;;22.10;89.20;;;;;;5044222;28;20479;-62
2023/11/02 05:04:19;;;;;;;9.10;8.80;;;22.10;89.20;;;;;;5043692;28;20456;-62
2023/11/02 05:06:46;;;;;;;8.40;8.20;;;22.10;89.20;;;;;;5040646;28;20536;-63
2023/11/02 05:09:13;;;;;;;8.77;8.57;;;22.10;89.00;;;;;;5040526;28;20476;-63
2023/11/02 05:11:40;;;;;;;8.90;8.70;;;22.10;89.00;;;;;;5043392;28;20477;-63
2023/11/02 05:14:08;;;;;;;9.97;9.67;;;22.10;89.10;;;;;;5043757;28;20488;-60
2023/11/02 05:16:35;;;;;;;10.33;10.13;;;22.10;89.00;;;;;;5041497;28;20882;-64
2023/11/02 05:19:02;;;;;;;9.40;9.07;;;22.10;89.00;;;;;;5040456;28;20906;-61
2023/11/02 05:21:29;;;;;;;10.63;10.33;;;22.10;89.10;;;;;;5041589;28;20452;-61
2023/11/02 05:23:56;;;;;;;10.30;10.00;;;22.10;89.10;;;;;;5043634;28;20488;-63
2023/11/02 05:26:23;;;;;;;10.60;10.40;;;22.10;89.00;;;;;;5043025;28;20523;-61
2023/11/02 05:28:51;;;;;;;9.20;9.00;;;22.10;88.80;;;;;;5040130;28;20472;-63
2023/11/02 05:31:19;;;;;;;11.33;11.03;;;22.10;89.10;;;;;;5040155;28;20510;-62
2023/11/02 05:33:46;;;;;;;9.70;9.40;;;22.10;89.20;;;;;;5043526;28;20444;-63
2023/11/02 05:36:13;;;;;;;9.60;9.30;;;22.10;89.20;;;;;;5043507;28;20468;-62
2023/11/02 05:38:40;;;;;;;10.97;10.67;;;22.00;89.20;;;;;;5040483;28;20519;-62
2023/11/02 05:41:07;;;;;;;10.33;9.73;;;22.00;88.90;;;;;;5040086;28;20512;-63
2023/11/02 05:43:35;;;;;;;10.33;10.03;;;22.00;88.80;;;;;;5041388;28;20877;-62
2023/11/02 05:46:03;;;;;;;9.60;9.30;;;22.00;88.80;;;;;;5043224;28;20440;-64
2023/11/02 05:48:31;;;;;;;10.37;10.07;;;22.00;88.90;;;;;;5041859;28;20539;-64
2023/11/02 05:50:58;;;;;;;9.50;9.30;;;22.00;89.00;;;;;;5039867;28;20445;-63
2023/11/02 05:53:25;;;;;;;9.30;8.80;;;22.10;89.00;;;;;;5040483;28;20437;-62
2023/11/02 05:55:52;;;;;;;10.43;9.83;;;22.00;89.10;;;;;;5043232;28;20495;-64
2023/11/02 05:58:19;;;;;;;9.47;9.10;;;22.10;89.30;;;;;;5043341;28;20479;-62
2023/11/02 06:00:46;;;;;;;10.80;10.20;;;22.10;89.30;;;;;;5031576;28;21077;-65
2023/11/02 06:03:13;;;;;;;11.10;10.40;;;22.10;89.10;;;;;;5039731;28;20883;-62
2023/11/02 06:05:41;;;;;;;10.10;9.80;;;22.10;88.90;;;;;;5042245;28;20950;-62
2023/11/02 06:08:08;;;;;;;9.33;8.70;;;22.10;88.70;;;;;;5043162;28;20730;-61
2023/11/02 06:10:35;;;;;;;8.77;8.57;;;22.10;88.50;;;;;;5041086;28;20471;-64
2023/11/02 06:13:02;;;;;;;9.93;9.73;;;22.10;88.40;;;;;;5039472;28;20532;-61
2023/11/02 06:15:29;;;;;;;10.00;9.80;;;22.10;88.40;;;;;;5040450;28;20500;-64
2023/11/02 06:17:55;;;;;;;10.03;9.63;;;22.20;88.50;;;;;;5043087;28;20480;-62
2023/11/02 06:20:22;;;;;;;10.73;10.33;;;22.20;88.30;;;;;;5042697;28;20496;-62
2023/11/02 06:22:50;;;;;;;9.77;9.17;;;22.20;88.20;;;;;;5039442;28;20468;-60
2023/11/02 06:25:18;;;;;;;8.97;8.67;;;22.20;88.20;;;;;;5039637;28;20493;-61
2023/11/02 06:27:45;;;;;;;8.93;8.63;;;22.20;88.10;;;;;;5042544;28;20448;-63
2023/11/02 06:30:13;;;;;;;8.90;8.70;;;22.20;88.10;;;;;;5042991;28;20464;-61
2023/11/02 06:32:40;;;;;;;9.37;9.07;;;22.20;88.10;;;;;;5040294;28;20967;-63
2023/11/02 06:35:08;;;;;;;8.90;8.50;;;22.20;88.00;;;;;;5039226;28;20497;-65
2023/11/02 06:37:56;;;;;;;8.30;8.00;;;22.20;87.90;;;;;;5041031;28;20445;-62
2023/11/02 06:40:23;;;;;;;8.60;8.30;;;22.20;87.90;;;;;;5042453;28;20854;-64
2023/11/02 06:42:51;;;;;;;9.00;8.70;;;22.20;87.80;;;;;;5039302;28;20970;-62
2023/11/02 06:45:18;;;;;;;12.93;9.70;;;22.20;87.80;;;;;;5039478;28;20519;-64
2023/11/02 06:47:45;;;;;;;9.90;9.67;;;22.20;87.70;;;;;;5042383;28;20507;-63
2023/11/02 06:50:12;;;;;;;8.93;8.63;;;22.20;87.70;;;;;;5042942;28;20469;-63
2023/11/02 06:52:39;;;;;;;8.90;8.50;;;22.20;87.60;;;;;;5040310;28;20468;-63
2023/11/02 06:55:08;;;;;;;9.50;9.20;;;22.10;87.50;;;;;;5040617;28;20507;-61
2023/11/02 06:57:35;;;;;;;11.93;11.63;;;22.20;87.60;;;;;;5044745;28;20475;-64
2023/11/02 07:00:05;;;;;;;8.43;8.23;;;22.10;87.40;;;;;;5046364;28;20510;-64
2023/11/02 07:02:32;;;;;;;9.10;8.90;;;22.10;87.40;;;;;;5044970;28;20514;-63
2023/11/02 07:05:00;;;;;;;8.50;8.10;;;22.10;87.40;;;;;;5042779;28;20469;-64
2023/11/02 07:07:27;;;;;;;9.23;9.03;;;22.10;87.30;;;;;;5043253;28;20495;-64
2023/11/02 07:09:54;;;;;;;9.97;9.67;;;22.10;87.30;;;;;;5046271;28;20508;-63
2023/11/02 07:12:22;;;;;;;9.57;9.17;;;22.10;87.30;;;;;;5046313;28;20821;-62
2023/11/02 07:14:49;;;;;;;9.10;8.60;;;22.10;87.30;;;;;;5034617;28;20491;-60
2023/11/02 07:17:16;;;;;;;10.13;9.77;;;22.10;87.30;;;;;;5042732;28;20444;-63
2023/11/02 07:19:43;;;;;;;8.67;8.47;;;22.10;87.20;;;;;;5045227;28;20559;-63
2023/11/02 07:22:10;;;;;;;9.27;9.03;;;22.10;87.20;;;;;;5045980;28;20468;-63
2023/11/02 07:24:37;;;;;;;9.10;8.90;;;22.10;87.30;;;;;;5044087;28;20903;-61
2023/11/02 07:27:04;;;;;;;9.73;9.00;;;22.10;87.30;;;;;;5042430;28;20503;-64
2023/11/02 07:29:32;;;;;;;10.23;9.90;;;22.10;87.20;;;;;;5043358;28;20480;-63
2023/11/02 07:31:59;;;;;;;10.30;10.00;;;22.10;87.20;;;;;;5045861;28;20468;-62
2023/11/02 07:34:26;;;;;;;9.87;9.57;;;22.10;87.10;;;;;;5045362;28;20491;-62
2023/11/02 07:36:54;;;;;;;9.67;9.30;;;22.10;87.20;;;;;;5042431;28;20476;-61
2023/11/02 07:39:21;;;;;;;9.60;9.40;;;22.10;87.10;;;;;;5042334;28;20520;-61
2023/11/02 07:41:48;;;;;;;9.80;9.60;;;22.10;87.20;;;;;;5045191;28;21006;-62
2023/11/02 07:44:15;;;;;;;9.60;9.30;;;22.10;87.20;;;;;;5045524;28;20459;-63
2023/11/02 07:46:44;;;;;;;9.83;9.63;;;22.10;87.10;;;;;;5043157;28;20831;-62
2023/11/02 07:49:10;;;;;;;9.90;9.60;;;22.10;87.10;;;;;;5042109;28;20465;-61
2023/11/02 07:51:37;;;;;;;10.20;10.00;;;22.10;87.00;;;;;;5043644;28;20477;-62
2023/11/02 07:54:07;;;;;;;9.87;9.67;;;22.10;86.90;;;;;;5045289;28;20500;-63
2023/11/02 07:56:36;;;;;;;10.20;9.90;;;22.10;86.90;;;;;;5043769;28;20445;-61
2023/11/02 07:59:03;;;;;;;9.67;9.47;;;22.10;86.90;;;;;;5041899;28;20956;-61
2023/11/02 08:01:30;;;;;;;10.80;10.50;;;22.20;87.00;;;;;;5042409;28;20481;-63
2023/11/02 08:03:58;;;;;;;10.20;9.90;;;22.20;87.00;;;;;;5045157;28;20497;-64
2023/11/02 08:06:25;;;;;;;9.70;9.50;;;22.20;87.00;;;;;;5045063;28;20503;-63
2023/11/02 08:08:52;;;;;;;10.37;10.07;;;22.20;87.00;;;;;;5033676;28;20474;-63
2023/11/02 08:11:19;;;;;;;10.83;10.53;;;22.20;87.00;;;;;;5041677;28;20445;-63
2023/11/02 08:13:46;;;;;;;9.80;9.60;;;22.20;86.90;;;;;;5044307;28;20505;-63
2023/11/02 08:16:13;;;;;;;10.83;10.53;;;22.20;86.90;;;;;;5044980;28;20444;-64
2023/11/02 08:18:40;;;;;;;9.97;9.77;;;22.20;86.80;;;;;;5043117;28;20471;-63
2023/11/02 08:21:09;;;;;;;10.37;10.17;;;22.20;86.90;;;;;;5041381;28;20592;-64
2023/11/02 08:23:36;;;;;;;10.17;9.80;;;22.20;86.80;;;;;;5042854;28;20445;-63
2023/11/02 08:26:03;;;;;;;9.37;9.17;;;22.20;86.70;;;;;;5044770;28;20877;-64
2023/11/02 08:28:30;;;;;;;9.70;9.50;;;22.20;86.70;;;;;;5044078;28;20445;-63
2023/11/02 08:30:57;;;;;;;10.20;10.00;;;22.20;86.70;;;;;;5041377;28;20462;-63
2023/11/02 08:33:24;;;;;;;9.87;9.57;;;22.20;86.70;;;;;;5041368;28;20473;-60
2023/11/02 08:35:51;;;;;;;9.30;9.10;;;22.20;86.70;;;;;;5044357;28;20492;-58
2023/11/02 08:38:19;;;;;;;10.40;10.10;;;22.20;86.70;;;;;;5044551;28;21050;-62
2023/11/02 08:40:46;;;;;;;9.40;9.20;;;22.20;86.70;;;;;;5041669;28;20512;-61
2023/11/02 08:43:13;;;;;;;9.80;9.60;;;22.10;86.50;;;;;;5040996;28;20441;-64
2023/11/02 08:45:40;;;;;;;9.67;9.47;;;22.10;86.50;;;;;;5042929;28;21049;-63
2023/11/02 08:48:08;;;;;;;9.80;9.60;;;22.10;86.50;;;;;;5044455;28;20478;-64
2023/11/02 08:50:36;;;;;;;10.03;9.80;;;22.10;86.50;;;;;;5043215;28;20935;-63
2023/11/02 08:53:03;;;;;;;9.40;9.20;;;22.10;86.50;;;;;;5040864;28;20472;-63
2023/11/02 08:55:31;;;;;;;9.80;9.60;;;22.10;86.50;;;;;;5068017;22;20480;-63
2023/11/02 08:57:58;;;;;;;10.20;9.90;;;22.10;86.50;;;;;;5036958;28;20476;-63
2023/11/02 09:00:25;;;;;;;9.80;9.60;;;22.10;86.50;;;;;;5044634;28;20513;-63
2023/11/02 09:02:52;;;;;;;10.00;9.80;;;22.10;86.50;;;;;;5052388;28;20480;-63
2023/11/02 09:05:19;;;;;;;10.03;9.80;;;22.10;86.50;;;;;;5052473;28;20467;-62
2023/11/02 09:07:46;;;;;;;9.70;9.50;;;22.10;86.40;;;;;;5052604;28;20480;-64
2023/11/02 09:10:13;;;;;;;9.30;9.10;;;22.10;86.40;;;;;;5052707;28;20447;-63
2023/11/02 09:12:41;;;;;;;8.70;8.50;;;22.10;86.40;;;;;;5052420;28;20480;-62
2023/11/02 09:15:09;;;;;;;11.43;11.13;;;22.10;86.40;;;;;;5052376;28;21006;-61
2023/11/02 09:17:36;;;;;;;10.07;9.83;;;22.10;86.50;;;;;;5051731;28;20445;-63
2023/11/02 09:20:08;;;;;;;9.30;9.10;;;22.10;86.40;;;;;;5052266;28;20471;-64
2023/11/02 09:22:35;;;;;;;8.93;8.73;;;22.10;86.40;;;;;;5052180;28;20444;-63
2023/11/02 09:25:02;;;;;;;9.20;8.90;;;22.10;86.30;;;;;;5052044;28;20495;-64
2023/11/02 09:27:30;;;;;;;8.60;8.40;;;22.10;86.30;;;;;;5052141;28;20487;-63
2023/11/02 09:29:58;;;;;;;9.80;9.53;;;22.10;86.40;;;;;;5052097;28;20451;-63
2023/11/02 09:32:25;;;;;;;9.20;9.00;;;22.10;86.30;;;;;;5052151;28;20842;-63
2023/11/02 09:34:52;;;;;;;9.50;9.30;;;22.10;86.40;;;;;;5052251;28;20464;-63
2023/11/02 09:37:19;;;;;;;10.07;9.87;;;22.10;86.20;;;;;;5052034;28;20475;-63
2023/11/02 09:39:45;;;;;;;10.30;10.00;;;22.10;86.30;;;;;;5051930;28;20476;-63
2023/11/02 09:42:12;;;;;;;9.37;9.17;;;22.10;86.20;;;;;;5051686;28;20523;-61
2023/11/02 09:44:39;;;;;;;10.40;10.10;;;22.10;86.20;;;;;;5051780;28;20496;-60
2023/11/02 09:47:08;;;;;;;9.80;9.60;;;22.10;86.10;;;;;;5051942;28;20471;-61
2023/11/02 09:49:35;;;;;;;10.20;10.00;;;22.10;86.10;;;;;;5051930;28;20464;-60
2023/11/02 09:52:04;;;;;;;9.93;9.73;;;22.10;86.10;;;;;;5051735;28;20859;-61
2023/11/02 09:54:31;;;;;;;9.37;9.10;;;22.20;86.30;;;;;;5051527;28;20507;-61
2023/11/02 09:56:59;;;;;;;8.87;8.67;;;22.20;86.20;;;;;;5051632;28;20935;-61
2023/11/02 09:59:26;;;;;;;9.00;8.80;;;22.20;86.30;;;;;;5051695;28;20535;-61
2023/11/02 10:01:54;;;;;;;9.30;9.10;;;22.20;86.20;;;;;;5051495;28;20571;-63
2023/11/02 10:04:22;;;;;;;8.83;8.63;;;22.20;86.20;;;;;;5051542;28;20496;-63
2023/11/02 10:06:49;;;;;;;9.47;9.27;;;22.20;86.20;;;;;;5051855;28;20879;-64
2023/11/02 10:09:17;;;;;;;9.23;8.93;;;22.20;86.20;;;;;;5051496;28;20517;-63
2023/11/02 10:11:44;;;;;;;9.40;9.20;;;22.20;86.10;;;;;;5051789;28;20441;-64
2023/11/02 10:14:11;;;;;;;8.70;8.50;;;22.20;86.10;;;;;;5051404;28;20852;-63
2023/11/02 10:16:38;;;;;;;8.90;8.70;;;22.20;86.10;;;;;;5051420;28;20877;-63
2023/11/02 10:19:08;;;;;;;8.97;8.77;;;22.20;86.10;;;;;;5051389;28;20982;-63
2023/11/02 10:21:39;;;;;;;9.97;9.77;;;22.20;86.10;;;;;;5051382;28;20515;-63
2023/11/02 10:24:06;;;;;;;9.17;8.97;;;22.20;86.00;;;;;;5051414;28;20523;-63
2023/11/02 10:26:34;;;;;;;9.97;9.77;;;22.20;86.00;;;;;;5051486;28;20525;-63
2023/11/02 10:29:02;;;;;;;9.33;9.13;;;22.20;86.00;;;;;;5052888;28;20448;-63
2023/11/02 10:31:33;;;;;;;10.17;9.97;;;22.20;86.00;;;;;;5055548;28;20443;-63
2023/11/02 10:34:01;;;;;;;10.07;9.87;;;22.10;85.80;;;;;;5055533;28;20448;-64
2023/11/02 10:36:30;;;;;;;10.20;10.00;;;22.20;86.00;;;;;;5055053;28;20535;-64
2023/11/02 10:38:59;;;;;;;8.83;8.63;;;22.10;85.80;;;;;;5055408;28;20864;-64
2023/11/02 10:41:27;;;;;;;9.47;9.27;;;22.10;85.80;;;;;;5055195;28;20570;-63
2023/11/02 10:43:57;;;;;;;10.00;9.80;;;22.10;85.80;;;;;;5055114;28;20538;-62
2023/11/02 10:46:27;;;;;;;9.80;9.60;;;22.10;85.70;;;;;;5055162;28;20964;-61
2023/11/02 10:48:58;;;;;;;9.20;9.00;;;22.10;85.70;;;;;;5055256;28;20440;-61
2023/11/02 10:51:29;;;;;;;9.27;9.07;;;22.10;85.60;;;;;;5055226;28;20435;-64
2023/11/02 10:54:09;;;;;;;9.60;9.20;;;22.10;85.60;;;;;;5054990;28;20439;-63
2023/11/02 10:56:42;;;;;;;10.53;10.23;;;22.10;85.60;;;;;;5055128;28;20856;-64
2023/11/02 10:59:09;;;;;;;9.80;9.60;;;22.10;85.60;;;;;;5055253;28;20490;-63
2023/11/02 11:01:37;;;;;;;9.93;9.73;;;22.10;85.60;;;;;;5054992;28;20562;-62
2023/11/02 11:04:05;;;;;;;9.83;9.63;;;22.10;85.60;;;;;;5054843;28;20527;-63
2023/11/02 11:06:33;;;;;;;10.10;9.90;;;22.10;85.60;;;;;;5054710;28;20452;-63
2023/11/02 11:09:02;;;;;;;9.80;9.60;;;22.10;85.60;;;;;;5054861;28;20859;-63
2023/11/02 11:11:33;;;;;;;10.97;10.67;;;22.10;85.50;;;;;;5054627;28;20447;-64
2023/11/02 11:14:00;;;;;;;9.90;9.70;;;22.10;85.40;;;;;;5054707;28;20475;-63
2023/11/02 11:16:27;;;;;;;10.30;10.10;;;22.10;85.40;;;;;;5054720;28;20874;-64
2023/11/02 11:18:54;;;;;;;9.70;9.40;;;22.10;85.40;;;;;;5054768;28;20451;-63
2023/11/02 11:21:23;;;;;;;9.40;9.20;;;22.10;85.30;;;;;;5054445;28;20918;-64
2023/11/02 11:23:50;;;;;;;10.40;10.10;;;22.10;85.30;;;;;;5054395;28;20483;-63
2023/11/02 11:26:19;;;;;;;10.37;10.17;;;22.10;85.20;;;;;;5054378;28;20448;-63
2023/11/02 11:28:46;;;;;;;9.40;9.20;;;22.10;85.10;;;;;;5054889;28;20478;-63
2023/11/02 11:31:51;;;;;;;9.40;9.20;;;22.20;85.10;;;;;;5054314;28;20476;-63
2023/11/02 11:34:18;;;;;;;10.30;10.00;;;22.20;85.00;;;;;;5054414;28;20499;-63
2023/11/02 11:36:44;;;;;;;9.50;9.30;;;22.20;84.90;;;;;;5054182;28;20476;-62
2023/11/02 11:39:34;;;;;;;9.60;9.40;;;22.20;84.90;;;;;;5054290;28;20483;-63
2023/11/02 11:42:03;;;;;;;10.10;9.90;;;22.20;84.70;;;;;;5053421;28;20487;-63
2023/11/02 11:44:30;;;;;;;9.90;9.70;;;22.20;84.70;;;;;;5054031;28;20496;-63
2023/11/02 11:46:58;;;;;;;10.33;10.13;;;22.20;84.70;;;;;;5054102;28;20451;-64
2023/11/02 11:49:44;;;;;;;9.77;9.57;;;22.30;84.90;;;;;;5054039;28;20497;-63
2023/11/02 11:52:21;;;;;;;9.30;9.10;;;22.30;84.70;;;;;;5054192;28;20439;-63
2023/11/02 11:54:48;;;;;;;9.40;9.20;;;22.30;84.60;;;;;;5053960;28;20547;-64
2023/11/02 11:57:48;;;;;;;8.67;8.50;;;22.30;84.50;;;;;;5053768;28;20476;-63
2023/11/02 12:00:18;;;;;;;9.67;9.47;;;22.30;84.40;;;;;;5053739;28;20963;-64
2023/11/02 12:02:48;;;;;;;9.00;8.80;;;22.30;85.10;;;;;;5053623;28;20520;-62
2023/11/02 12:05:35;;;;;;;9.37;9.17;;;22.30;84.40;;;;;;5053594;28;20475;-63
2023/11/02 12:08:02;;;;;;;10.40;10.10;;;22.30;84.30;;;;;;5053513;28;20486;-62
2023/11/02 12:10:30;;;;;;;10.33;10.13;;;22.30;84.20;;;;;;5053817;28;20444;-63
2023/11/02 12:12:58;;;;;;;10.30;10.10;;;22.30;84.10;;;;;;5053628;28;20476;-63
2023/11/02 12:15:27;;;;;;;9.60;9.33;;;22.30;84.00;;;;;;5053489;28;20899;-63
2023/11/02 12:17:55;;;;;;;9.73;9.53;;;22.30;83.90;;;;;;5053556;28;20475;-63
2023/11/02 12:20:34;;;;;;;9.80;9.60;;;22.30;83.70;;;;;;5053369;28;21027;-63
2023/11/02 12:23:01;;;;;;;11.20;10.90;;;22.30;83.70;;;;;;5053356;28;20989;-63
2023/11/02 12:25:28;;;;;;;9.77;9.57;;;22.30;83.60;;;;;;5053497;28;20464;-60
2023/11/02 12:27:58;;;;;;;10.23;10.03;;;22.30;83.50;;;;;;5053309;28;20468;-60
2023/11/02 12:30:26;;;;;;;9.70;9.50;;;22.30;83.50;;;;;;5053302;28;20867;-62
2023/11/02 12:32:53;;;;;;;10.23;10.00;;;22.30;83.30;;;;;;5053219;28;20483;-61
2023/11/02 12:35:21;;;;;;;10.33;10.00;;;22.30;84.10;;;;;;5052874;28;20526;-60
2023/11/02 12:37:59;;;;;;;10.00;9.80;;;22.30;83.20;;;;;;5053091;28;20444;-60
2023/11/02 12:40:26;;;;;;;10.10;9.80;;;22.30;83.20;;;;;;5053147;28;20955;-60
2023/11/02 12:42:53;;;;;;;10.57;10.27;;;22.30;83.10;;;;;;5052886;28;20918;-61
2023/11/02 12:45:23;;;;;;;10.30;10.10;;;22.30;83.10;;;;;;5052891;28;20492;-61
2023/11/02 12:47:51;;;;;;;10.43;10.23;;;22.30;83.10;;;;;;5052942;28;20452;-61
2023/11/02 12:50:30;;;;;;;10.70;10.30;;;22.30;83.00;;;;;;5052883;28;20532;-61
2023/11/02 12:52:57;;;;;;;10.40;10.07;;;22.30;82.80;;;;;;5051872;28;20447;-61
2023/11/02 12:55:25;;;;;;;11.10;10.80;;;22.30;82.80;;;;;;5052756;28;20483;-61
2023/11/02 12:57:52;;;;;;;10.60;10.00;;;22.30;82.80;;;;;;5053070;28;20448;-60
2023/11/02 13:00:19;;;;;;;9.97;9.77;;;22.30;82.70;;;;;;5052670;28;20472;-61